Time;durP1;ratioP1;P1;durP2;ratioP2;P2;SDS_P1;SDS_P2;PMS_P1;PMS_P2;Temp;Humidity;BMP_temperature;BMP_pressure;BME280_temperature;BME280_humidity;BME280_pressure;Samples;Min_cycle;Max_cycle;Signal;HPM_P1;HPM_P2
2021/11/10 00:00:43;;;;;;;0.77;0.63;;;3.80;99.90;;;;;;5052382;28;20287;-70
2021/11/10 00:03:09;;;;;;;0.70;0.50;;;3.80;99.90;;;;;;5053982;28;20484;-70
2021/11/10 00:05:35;;;;;;;0.70;0.50;;;3.70;99.90;;;;;;5053660;28;20531;-70
2021/11/10 00:08:02;;;;;;;0.70;0.60;;;3.70;99.90;;;;;;5053695;28;20997;-70
2021/11/10 00:10:28;;;;;;;0.70;0.50;;;3.80;99.90;;;;;;5052491;28;20417;-70
2021/11/10 00:12:55;;;;;;;0.70;0.50;;;3.80;99.90;;;;;;5051554;28;20978;-70
2021/11/10 00:15:21;;;;;;;0.70;0.50;;;3.80;99.90;;;;;;5051321;28;20163;-70
2021/11/10 00:17:46;;;;;;;0.80;0.70;;;3.90;99.90;;;;;;5052670;28;20436;-70
2021/11/10 00:20:12;;;;;;;0.70;0.50;;;3.90;99.90;;;;;;5051625;28;20205;-70
2021/11/10 00:22:38;;;;;;;2.80;1.03;;;3.90;99.90;;;;;;5052057;28;20170;-70
2021/11/10 00:25:04;;;;;;;1.27;1.17;;;3.80;99.90;;;;;;5052354;28;20894;-70
2021/11/10 00:27:30;;;;;;;0.70;0.50;;;3.80;99.90;;;;;;5053525;28;20604;-70
2021/11/10 00:29:56;;;;;;;0.70;0.50;;;3.80;99.90;;;;;;5053243;28;20421;-70
2021/11/10 00:32:22;;;;;;;0.80;0.77;;;3.80;99.90;;;;;;5068602;28;20457;-70
2021/11/10 00:34:48;;;;;;;0.70;0.60;;;3.70;99.90;;;;;;5051918;28;20181;-70
2021/11/10 00:37:13;;;;;;;0.70;0.50;;;3.60;99.90;;;;;;5051943;28;20419;-70
2021/11/10 00:39:39;;;;;;;0.70;0.60;;;3.70;99.90;;;;;;5052582;28;20166;-70
2021/11/10 00:42:05;;;;;;;0.80;0.60;;;3.70;99.90;;;;;;5051783;28;20639;-70
2021/11/10 00:44:30;;;;;;;0.70;0.50;;;3.70;99.90;;;;;;5051083;28;20171;-70
2021/11/10 00:46:56;;;;;;;0.70;0.50;;;3.60;99.90;;;;;;5052696;28;20565;-70
2021/11/10 00:49:22;;;;;;;0.70;0.50;;;3.60;99.90;;;;;;5052686;28;20217;-70
2021/11/10 00:51:47;;;;;;;0.70;0.50;;;3.60;99.90;;;;;;5051732;28;20612;-70
2021/11/10 00:54:13;;;;;;;0.80;0.73;;;3.70;99.90;;;;;;5053090;28;20235;-70
2021/11/10 00:56:39;;;;;;;0.70;0.43;;;3.50;99.90;;;;;;5051260;28;20190;-70
2021/11/10 00:59:04;;;;;;;0.80;0.70;;;3.40;99.90;;;;;;5051578;28;20433;-70
2021/11/10 01:01:30;;;;;;;1.57;1.47;;;3.30;99.90;;;;;;5052353;28;20179;-70
2021/11/10 01:03:55;;;;;;;0.70;0.50;;;3.30;99.90;;;;;;5068270;28;20586;-70
2021/11/10 01:06:21;;;;;;;0.70;0.60;;;3.30;99.90;;;;;;5052206;28;20194;-70
2021/11/10 01:08:47;;;;;;;0.70;0.50;;;3.40;99.90;;;;;;5052850;28;20218;-70
2021/11/10 01:11:13;;;;;;;1.70;1.60;;;3.40;99.90;;;;;;5051428;28;20227;-70
2021/11/10 01:13:38;;;;;;;0.80;0.70;;;3.40;99.90;;;;;;5052402;28;20195;-70
2021/11/10 01:16:05;;;;;;;0.97;0.80;;;3.40;99.90;;;;;;5051934;28;20651;-70
2021/11/10 01:18:30;;;;;;;1.67;1.23;;;3.40;99.90;;;;;;5051110;28;20190;-70
2021/11/10 01:20:56;;;;;;;0.70;0.47;;;3.40;99.90;;;;;;5050875;28;20963;-70
2021/11/10 01:23:22;;;;;;;0.70;0.50;;;3.40;99.90;;;;;;5052654;28;20239;-70
2021/11/10 01:25:48;;;;;;;0.70;0.50;;;3.30;99.90;;;;;;5051832;28;20424;-70
2021/11/10 01:28:13;;;;;;;0.70;0.50;;;3.20;99.90;;;;;;5042080;28;20656;-70
2021/11/10 01:30:40;;;;;;;0.70;0.60;;;3.30;99.90;;;;;;5052769;28;20163;-70
2021/11/10 01:33:07;;;;;;;3.33;3.13;;;3.30;99.90;;;;;;5050526;28;20718;-70
2021/11/10 01:35:33;;;;;;;0.70;0.60;;;3.30;99.90;;;;;;5051352;28;20405;-70
2021/11/10 01:37:59;;;;;;;0.80;0.60;;;3.30;99.90;;;;;;5052006;28;20443;-70
2021/11/10 01:40:25;;;;;;;0.70;0.50;;;3.30;99.90;;;;;;5051115;28;20492;-70
2021/11/10 01:42:51;;;;;;;1.17;0.70;;;3.20;99.90;;;;;;5051188;28;20556;-70
2021/11/10 01:45:18;;;;;;;0.90;0.90;;;3.20;99.90;;;;;;5050980;28;20197;-70
2021/11/10 01:47:45;;;;;;;0.70;0.50;;;3.30;99.90;;;;;;5050734;28;21215;-70
2021/11/10 01:50:13;;;;;;;0.70;0.50;;;3.30;99.90;;;;;;5051778;28;20417;-70
2021/11/10 01:52:40;;;;;;;1.63;0.80;;;3.30;99.90;;;;;;5051874;28;20468;-70
2021/11/10 01:55:07;;;;;;;3.77;1.47;;;3.30;99.90;;;;;;5052042;28;20409;-70
2021/11/10 01:57:33;;;;;;;0.70;0.40;;;3.30;99.90;;;;;;5050645;28;20513;-70
2021/11/10 02:00:08;;;;;;;0.70;0.50;;;3.30;99.90;;;;;;5067168;28;20494;-70
2021/11/10 02:02:34;;;;;;;0.70;0.50;;;3.20;99.90;;;;;;5032585;28;20408;-70
2021/11/10 02:05:00;;;;;;;0.87;0.87;;;3.20;99.90;;;;;;5050907;28;20775;-70
2021/11/10 02:07:26;;;;;;;0.70;0.60;;;3.20;99.90;;;;;;5050819;28;20186;-70
2021/11/10 02:09:52;;;;;;;0.70;0.50;;;3.10;99.90;;;;;;5052902;28;20208;-70
2021/11/10 02:12:18;;;;;;;0.80;0.63;;;3.10;99.90;;;;;;5051184;28;20579;-70
2021/11/10 02:14:44;;;;;;;0.70;0.50;;;3.10;99.90;;;;;;5051295;28;20417;-70
2021/11/10 02:17:17;;;;;;;0.80;0.70;;;3.20;99.90;;;;;;5050754;28;20508;-70
2021/11/10 02:19:43;;;;;;;0.70;0.50;;;3.20;99.90;;;;;;5050796;28;20421;-70
2021/11/10 02:22:09;;;;;;;3.47;1.83;;;3.10;99.90;;;;;;5050565;28;20969;-70
2021/11/10 02:24:37;;;;;;;0.80;0.70;;;3.10;99.90;;;;;;5050882;28;20516;-70
2021/11/10 02:27:03;;;;;;;0.70;0.50;;;3.00;99.90;;;;;;5050345;28;20417;-70
2021/11/10 02:29:30;;;;;;;1.80;1.70;;;3.00;99.90;;;;;;5052189;28;20446;-70
2021/11/10 02:31:58;;;;;;;0.70;0.50;;;3.00;99.90;;;;;;5051077;28;20890;-70
2021/11/10 02:34:24;;;;;;;0.70;0.50;;;3.00;99.90;;;;;;5051417;28;20497;-70
2021/11/10 02:36:50;;;;;;;1.00;0.90;;;3.00;99.90;;;;;;5051968;28;20432;-70
2021/11/10 02:39:22;;;;;;;0.70;0.47;;;3.00;99.90;;;;;;5054358;28;20532;-70
2021/11/10 02:41:48;;;;;;;0.70;0.50;;;3.00;99.90;;;;;;5054400;28;20428;-70
2021/11/10 02:44:17;;;;;;;0.70;0.50;;;3.00;99.90;;;;;;5055739;28;20428;-70
2021/11/10 02:46:43;;;;;;;0.70;0.50;;;3.00;99.90;;;;;;5055429;28;20421;-70
2021/11/10 02:49:10;;;;;;;0.80;0.77;;;3.00;99.90;;;;;;5055655;28;20861;-70
2021/11/10 02:51:36;;;;;;;0.80;0.67;;;2.90;99.90;;;;;;5055303;28;20428;-70
2021/11/10 02:54:07;;;;;;;1.37;1.17;;;2.90;99.90;;;;;;5055559;28;20984;-70
2021/11/10 02:56:33;;;;;;;0.70;0.40;;;3.00;99.90;;;;;;5055920;28;20183;-70
2021/11/10 02:58:58;;;;;;;0.70;0.50;;;3.00;99.90;;;;;;5054067;28;20466;-70
2021/11/10 03:01:24;;;;;;;0.70;0.50;;;3.00;99.90;;;;;;5053489;28;20170;-70
2021/11/10 03:03:49;;;;;;;0.80;0.60;;;3.00;99.90;;;;;;5055484;28;20179;-70
2021/11/10 03:06:15;;;;;;;0.90;0.60;;;3.00;99.90;;;;;;5054738;28;20555;-70
2021/11/10 03:08:42;;;;;;;1.27;1.17;;;3.00;99.90;;;;;;5054196;28;20212;-70
2021/11/10 03:11:08;;;;;;;0.73;0.60;;;3.00;99.90;;;;;;5055069;28;20475;-70
2021/11/10 03:13:39;;;;;;;0.70;0.50;;;2.90;99.90;;;;;;5055366;28;20469;-70
2021/11/10 03:16:04;;;;;;;0.70;0.50;;;2.90;99.90;;;;;;5055043;28;20171;-70
2021/11/10 03:18:30;;;;;;;1.90;1.80;;;3.00;99.90;;;;;;5053527;28;20516;-70
2021/11/10 03:20:55;;;;;;;0.70;0.50;;;3.00;99.90;;;;;;5055150;28;20182;-70
2021/11/10 03:23:21;;;;;;;0.70;0.50;;;3.00;99.90;;;;;;5054031;28;20632;-70
2021/11/10 03:25:47;;;;;;;0.80;0.60;;;3.00;99.90;;;;;;5053653;28;20209;-70
2021/11/10 03:28:12;;;;;;;7.43;1.93;;;2.90;99.90;;;;;;5054712;28;20946;-70
2021/11/10 03:30:38;;;;;;;1.10;0.97;;;3.00;99.90;;;;;;5070591;28;20171;-70
2021/11/10 03:33:04;;;;;;;0.70;0.50;;;3.00;99.90;;;;;;5070806;28;20202;-70
2021/11/10 03:35:29;;;;;;;1.47;1.37;;;3.00;99.90;;;;;;5054557;28;20717;-70
2021/11/10 03:37:55;;;;;;;0.70;0.50;;;3.00;99.90;;;;;;5054283;28;20730;-70
2021/11/10 03:40:21;;;;;;;0.80;0.80;;;3.00;99.90;;;;;;5053592;28;20197;-70
2021/11/10 03:42:46;;;;;;;0.70;0.50;;;3.00;99.90;;;;;;5054394;28;20171;-70
2021/11/10 03:45:12;;;;;;;0.90;0.90;;;2.90;99.90;;;;;;5053236;28;20421;-70
2021/11/10 03:47:37;;;;;;;1.10;0.80;;;2.90;99.90;;;;;;5054310;28;20191;-70
2021/11/10 03:50:05;;;;;;;1.57;0.80;;;2.80;99.90;;;;;;5053599;28;20268;-70
2021/11/10 03:52:30;;;;;;;0.70;0.50;;;2.70;99.90;;;;;;5054339;28;20203;-70
2021/11/10 03:54:56;;;;;;;0.70;0.50;;;2.80;99.90;;;;;;5052685;28;20752;-70
2021/11/10 03:57:22;;;;;;;0.70;0.40;;;2.80;99.90;;;;;;5052931;28;20186;-70
2021/11/10 03:59:47;;;;;;;0.70;0.50;;;2.80;99.90;;;;;;5053665;28;20209;-70
2021/11/10 04:02:13;;;;;;;0.70;0.60;;;2.80;99.90;;;;;;5053145;28;20641;-70
2021/11/10 04:04:39;;;;;;;1.13;1.03;;;2.80;99.90;;;;;;5052416;28;20173;-70
2021/11/10 04:07:05;;;;;;;0.80;0.70;;;2.80;99.90;;;;;;5053057;28;20416;-70
2021/11/10 04:09:31;;;;;;;0.70;0.60;;;2.60;99.90;;;;;;5051916;28;20194;-70
2021/11/10 04:11:57;;;;;;;1.20;0.80;;;2.30;99.90;;;;;;5054126;28;20634;-70
2021/11/10 04:14:22;;;;;;;0.70;0.50;;;2.40;99.90;;;;;;5055159;28;20414;-69
2021/11/10 04:16:48;;;;;;;1.63;1.53;;;2.20;99.90;;;;;;5055105;28;20503;-70
2021/11/10 04:19:14;;;;;;;0.70;0.50;;;2.00;99.90;;;;;;5052369;28;20248;-69
2021/11/10 04:21:39;;;;;;;2.83;2.63;;;2.00;99.90;;;;;;5053067;28;20908;-69
2021/11/10 04:24:05;;;;;;;0.70;0.50;;;2.00;99.90;;;;;;5052920;28;20186;-69
2021/11/10 04:26:34;;;;;;;0.70;0.60;;;2.00;99.90;;;;;;5052822;28;20175;-69
2021/11/10 04:29:00;;;;;;;0.77;0.67;;;2.00;99.90;;;;;;5053476;28;20954;-69
2021/11/10 04:31:27;;;;;;;0.80;0.60;;;1.90;99.90;;;;;;5052923;28;20421;-69
2021/11/10 04:33:54;;;;;;;0.70;0.50;;;1.90;99.90;;;;;;5051456;28;20424;-69
2021/11/10 04:36:21;;;;;;;0.70;0.50;;;1.80;99.90;;;;;;5051628;28;20777;-70
2021/11/10 04:38:47;;;;;;;0.70;0.50;;;1.70;99.90;;;;;;5053483;28;20913;-69
2021/11/10 04:41:14;;;;;;;0.70;0.50;;;1.70;99.90;;;;;;5052203;28;20499;-69
2021/11/10 04:43:39;;;;;;;1.47;1.37;;;1.70;99.90;;;;;;5053690;28;20987;-69
2021/11/10 04:48:37;;;;;;;0.70;0.50;;;1.70;99.90;;;;;;5052167;28;20202;-70
2021/11/10 04:51:04;;;;;;;0.70;0.50;;;1.80;99.90;;;;;;5052482;28;20448;-70
2021/11/10 04:53:30;;;;;;;0.70;0.50;;;1.80;99.90;;;;;;5050971;28;20522;-70
2021/11/10 04:55:55;;;;;;;0.70;0.50;;;1.80;99.90;;;;;;5054196;28;20425;-70
2021/11/10 04:58:21;;;;;;;0.70;0.50;;;1.90;99.90;;;;;;5048052;28;20199;-71
2021/11/10 05:00:47;;;;;;;0.70;0.50;;;1.90;99.90;;;;;;5047279;28;20626;-69
2021/11/10 05:03:13;;;;;;;0.90;0.70;;;1.90;99.90;;;;;;5047877;28;20171;-70
2021/11/10 05:05:39;;;;;;;0.70;0.40;;;1.90;99.90;;;;;;5048654;28;20171;-70
2021/11/10 05:08:04;;;;;;;0.70;0.50;;;1.90;99.90;;;;;;5048762;28;20437;-70
2021/11/10 05:10:30;;;;;;;0.70;0.40;;;1.90;99.90;;;;;;5048458;28;20237;-70
2021/11/10 05:12:55;;;;;;;0.70;0.40;;;1.90;99.90;;;;;;5048355;28;20198;-70
2021/11/10 05:15:21;;;;;;;0.70;0.50;;;2.00;99.90;;;;;;5047741;28;20529;-69
2021/11/10 05:17:47;;;;;;;0.70;0.40;;;1.90;99.90;;;;;;5049345;28;20239;-70
2021/11/10 05:20:12;;;;;;;0.70;0.50;;;2.00;99.90;;;;;;5048516;28;20167;-70
2021/11/10 05:22:39;;;;;;;0.70;0.43;;;2.00;99.90;;;;;;5053421;28;20224;-69
2021/11/10 05:25:06;;;;;;;0.70;0.50;;;2.00;99.90;;;;;;5051782;28;20206;-69
2021/11/10 05:27:31;;;;;;;0.70;0.47;;;2.00;99.90;;;;;;5051914;28;20982;-70
2021/11/10 05:29:57;;;;;;;0.70;0.47;;;2.00;99.90;;;;;;5051617;28;20420;-70
2021/11/10 05:32:23;;;;;;;0.80;0.77;;;1.80;99.90;;;;;;5051049;28;20677;-70
2021/11/10 05:34:50;;;;;;;0.70;0.50;;;1.90;99.90;;;;;;5052353;28;20171;-70
2021/11/10 05:37:16;;;;;;;0.70;0.50;;;1.90;99.90;;;;;;5052473;28;20624;-70
2021/11/10 05:39:41;;;;;;;0.70;0.50;;;1.80;99.90;;;;;;5051123;28;20428;-70
2021/11/10 05:42:08;;;;;;;0.70;0.50;;;1.80;99.90;;;;;;5050767;28;20915;-70
2021/11/10 05:44:34;;;;;;;0.70;0.50;;;1.90;99.90;;;;;;5051517;28;20171;-70
2021/11/10 05:46:59;;;;;;;0.70;0.50;;;1.90;99.90;;;;;;5051208;28;20425;-69
2021/11/10 05:49:25;;;;;;;0.70;0.50;;;1.90;99.90;;;;;;5050317;28;20787;-70
2021/11/10 05:51:50;;;;;;;0.70;0.60;;;1.80;99.90;;;;;;5051827;28;20206;-70
2021/11/10 05:54:16;;;;;;;0.70;0.50;;;1.80;99.90;;;;;;5050601;28;20200;-69
2021/11/10 05:56:43;;;;;;;0.70;0.40;;;1.90;99.90;;;;;;5049688;28;20179;-70
2021/11/10 05:59:09;;;;;;;0.70;0.50;;;1.80;99.90;;;;;;5052651;28;20186;-70
2021/11/10 06:01:36;;;;;;;0.70;0.50;;;1.90;99.90;;;;;;5051002;28;20476;-70
2021/11/10 06:04:01;;;;;;;0.70;0.50;;;1.80;99.90;;;;;;5052035;28;20409;-70
2021/11/10 06:06:27;;;;;;;0.70;0.50;;;1.90;99.90;;;;;;5052130;28;20447;-70
2021/11/10 06:08:53;;;;;;;0.70;0.50;;;1.80;99.90;;;;;;5052181;28;20271;-70
2021/11/10 06:11:19;;;;;;;0.70;0.60;;;1.70;99.90;;;;;;5052458;28;20474;-70
2021/11/10 06:13:45;;;;;;;1.63;1.53;;;1.70;99.90;;;;;;5055921;28;20463;-70
2021/11/10 06:16:10;;;;;;;0.70;0.53;;;1.70;99.90;;;;;;5071792;28;20785;-70
2021/11/10 06:18:36;;;;;;;0.70;0.60;;;1.70;99.90;;;;;;5056401;28;20187;-70
2021/11/10 06:21:04;;;;;;;0.70;0.50;;;1.70;99.90;;;;;;5055517;28;20186;-70
2021/11/10 06:23:29;;;;;;;0.80;0.70;;;1.80;99.90;;;;;;5056218;28;20178;-71
2021/11/10 06:25:55;;;;;;;0.70;0.60;;;1.80;99.90;;;;;;5054890;28;20421;-70
2021/11/10 06:28:20;;;;;;;0.70;0.50;;;1.80;99.90;;;;;;5068950;28;20698;-70
2021/11/10 06:30:46;;;;;;;1.13;1.03;;;1.80;99.90;;;;;;5055135;28;20173;-70
2021/11/10 06:33:12;;;;;;;0.70;0.60;;;1.90;99.90;;;;;;5069999;28;20210;-70
2021/11/10 06:35:37;;;;;;;0.70;0.40;;;1.90;99.90;;;;;;5054971;28;20541;-70
2021/11/10 06:38:03;;;;;;;0.70;0.50;;;1.90;99.90;;;;;;5067875;28;20678;-70
2021/11/10 06:40:29;;;;;;;0.70;0.50;;;1.90;99.90;;;;;;5055433;28;20171;-70
2021/11/10 06:42:54;;;;;;;0.70;0.50;;;1.80;99.90;;;;;;5058161;28;20462;-70
2021/11/10 06:45:20;;;;;;;1.00;0.80;;;1.70;99.90;;;;;;5057540;28;20174;-70
2021/11/10 06:47:47;;;;;;;1.33;1.23;;;1.70;99.90;;;;;;5056335;28;20191;-69
2021/11/10 06:50:13;;;;;;;0.70;0.50;;;1.60;99.90;;;;;;5056740;28;20427;-70
2021/11/10 06:52:39;;;;;;;0.80;0.80;;;1.60;99.90;;;;;;5055806;28;20456;-70
2021/11/10 06:55:06;;;;;;;0.70;0.50;;;1.60;99.90;;;;;;5055596;28;20957;-70
2021/11/10 06:57:31;;;;;;;3.13;1.03;;;1.60;99.90;;;;;;5055297;28;20557;-71
2021/11/10 06:59:57;;;;;;;0.70;0.50;;;1.70;99.90;;;;;;5056174;28;20471;-70
2021/11/10 07:02:23;;;;;;;0.70;0.47;;;1.80;99.90;;;;;;5055828;28;20171;-70
2021/11/10 07:04:49;;;;;;;1.00;0.80;;;1.80;99.90;;;;;;5055371;28;21300;-70
2021/11/10 07:07:14;;;;;;;0.70;0.50;;;1.80;99.90;;;;;;5054463;28;20413;-70
2021/11/10 07:09:40;;;;;;;0.70;0.50;;;1.80;99.90;;;;;;5055478;28;20221;-70
2021/11/10 07:12:06;;;;;;;0.70;0.50;;;1.80;99.90;;;;;;5055572;28;20233;-70
2021/11/10 07:14:32;;;;;;;0.70;0.50;;;2.00;99.90;;;;;;5055141;28;20181;-70
2021/11/10 07:16:57;;;;;;;0.70;0.50;;;2.00;99.90;;;;;;5055264;28;20429;-70
2021/11/10 07:19:23;;;;;;;0.80;0.73;;;2.00;99.90;;;;;;5055001;28;20241;-70
2021/11/10 07:21:49;;;;;;;0.80;0.70;;;2.10;99.90;;;;;;5055314;28;20231;-70
2021/11/10 07:24:15;;;;;;;4.30;2.50;;;2.20;99.90;;;;;;5054402;28;20171;-70
2021/11/10 07:26:41;;;;;;;0.70;0.50;;;2.20;99.90;;;;;;5053338;28;20284;-70
2021/11/10 07:29:07;;;;;;;0.70;0.50;;;2.30;99.90;;;;;;5054330;28;20884;-70
2021/11/10 07:31:33;;;;;;;0.70;0.60;;;2.40;99.90;;;;;;5052907;28;20175;-70
2021/11/10 07:33:59;;;;;;;0.70;0.50;;;2.40;99.90;;;;;;5054082;28;20175;-70
2021/11/10 07:36:26;;;;;;;0.70;0.60;;;2.60;99.90;;;;;;5053761;28;20897;-70
2021/11/10 07:38:54;;;;;;;0.70;0.60;;;2.60;99.90;;;;;;5052723;28;20445;-70
2021/11/10 07:41:20;;;;;;;0.70;0.67;;;2.60;99.90;;;;;;5053628;28;20441;-70
2021/11/10 07:43:48;;;;;;;0.70;0.50;;;2.80;99.90;;;;;;5054562;28;20429;-70
2021/11/10 07:46:15;;;;;;;1.97;1.87;;;2.90;99.90;;;;;;5053128;28;20451;-70
2021/11/10 07:48:42;;;;;;;0.70;0.50;;;3.00;99.90;;;;;;5054263;28;20565;-70
2021/11/10 07:51:08;;;;;;;1.70;1.63;;;3.20;99.90;;;;;;5053072;28;20416;-70
2021/11/10 07:53:35;;;;;;;0.70;0.60;;;3.30;99.90;;;;;;5054131;28;20569;-70
2021/11/10 07:56:01;;;;;;;1.03;0.93;;;3.50;99.90;;;;;;5053957;28;20394;-70
2021/11/10 07:58:26;;;;;;;2.33;1.13;;;4.30;99.90;;;;;;5053895;28;20441;-70
2021/11/10 08:00:52;;;;;;;2.17;2.07;;;5.10;99.90;;;;;;5053853;28;20424;-70
2021/11/10 08:03:18;;;;;;;1.13;1.03;;;6.20;99.90;;;;;;5054321;28;20240;-70
2021/11/10 08:05:43;;;;;;;0.70;0.70;;;7.10;99.90;;;;;;5051959;28;20667;-71
2021/11/10 08:08:09;;;;;;;1.10;0.87;;;7.90;99.90;;;;;;5052819;28;20566;-71
2021/11/10 08:10:35;;;;;;;3.70;2.00;;;8.60;99.90;;;;;;5053328;28;20846;-70
2021/11/10 08:13:01;;;;;;;0.80;0.70;;;8.40;99.90;;;;;;5053649;28;20209;-70
2021/11/10 08:15:26;;;;;;;1.17;1.03;;;8.60;99.90;;;;;;5053439;28;20417;-71
2021/11/10 08:17:52;;;;;;;1.30;1.03;;;8.70;99.90;;;;;;5053454;28;20195;-70
2021/11/10 08:20:18;;;;;;;1.30;1.20;;;9.20;99.90;;;;;;5053867;28;20175;-71
2021/11/10 08:22:45;;;;;;;1.80;1.70;;;9.40;99.90;;;;;;5053951;28;20178;-70
2021/11/10 08:25:13;;;;;;;0.80;0.67;;;8.60;99.90;;;;;;5051809;28;20425;-70
2021/11/10 08:27:40;;;;;;;4.87;1.87;;;9.20;99.90;;;;;;5052532;28;20426;-70
2021/11/10 08:30:08;;;;;;;1.00;0.90;;;10.00;99.90;;;;;;5052291;28;20436;-71
2021/11/10 08:32:35;;;;;;;2.97;2.20;;;11.20;99.90;;;;;;5053996;28;20460;-71
2021/11/10 08:35:02;;;;;;;1.40;1.13;;;11.40;99.90;;;;;;5052011;28;20467;-71
2021/11/10 08:37:28;;;;;;;1.70;1.10;;;11.60;99.90;;;;;;5053473;28;20528;-70
2021/11/10 08:39:54;;;;;;;2.07;1.90;;;12.00;99.90;;;;;;5053864;28;20918;-71
2021/11/10 08:42:20;;;;;;;1.27;1.00;;;11.80;99.90;;;;;;5055068;28;20544;-71
2021/11/10 08:44:47;;;;;;;1.20;1.10;;;12.30;99.90;;;;;;5057856;28;20325;-70
2021/11/10 08:47:14;;;;;;;1.17;0.90;;;12.70;99.90;;;;;;5050343;28;20258;-71
2021/11/10 08:49:39;;;;;;;1.57;1.47;;;12.90;99.90;;;;;;5054606;28;20496;-71
2021/11/10 08:52:05;;;;;;;1.97;1.77;;;13.40;99.90;;;;;;5054315;28;20951;-70
2021/11/10 08:54:32;;;;;;;1.43;1.33;;;12.90;99.90;;;;;;5054223;28;20174;-71
2021/11/10 08:56:58;;;;;;;1.10;0.83;;;12.20;99.90;;;;;;5053107;28;20245;-70
2021/11/10 08:59:25;;;;;;;1.93;1.00;;;11.90;99.90;;;;;;5051571;28;20439;-70
2021/11/10 09:01:54;;;;;;;1.33;1.23;;;10.80;99.90;;;;;;5051587;28;20487;-70
2021/11/10 09:04:21;;;;;;;2.80;1.13;;;10.60;99.90;;;;;;5052186;28;20521;-70
2021/11/10 09:06:48;;;;;;;2.10;0.90;;;10.10;99.90;;;;;;5052214;28;20508;-70
2021/11/10 09:09:15;;;;;;;2.03;1.93;;;10.70;99.90;;;;;;5052334;28;20437;-72
2021/11/10 09:11:40;;;;;;;2.00;1.87;;;11.40;99.90;;;;;;5052395;28;20429;-70
2021/11/10 09:14:06;;;;;;;1.03;0.93;;;11.00;99.90;;;;;;5051832;28;20432;-70
2021/11/10 09:16:32;;;;;;;5.07;2.93;;;11.80;99.90;;;;;;5052212;28;20851;-70
2021/11/10 09:18:58;;;;;;;0.90;0.80;;;12.50;99.90;;;;;;5050804;28;20201;-72
2021/11/10 09:21:24;;;;;;;0.70;0.60;;;11.70;99.90;;;;;;5051790;28;20170;-70
2021/11/10 09:23:49;;;;;;;1.40;1.30;;;12.00;99.90;;;;;;5052349;28;20179;-71
2021/11/10 09:26:15;;;;;;;1.23;0.93;;;12.70;99.90;;;;;;5052883;28;20755;-71
2021/11/10 09:28:42;;;;;;;1.20;1.00;;;13.10;99.90;;;;;;5052201;28;20210;-71
2021/11/10 09:31:08;;;;;;;1.60;1.20;;;13.90;99.90;;;;;;5051691;28;20179;-71
2021/11/10 09:33:38;;;;;;;1.40;1.30;;;15.00;99.90;;;;;;5051909;28;20981;-71
2021/11/10 09:36:04;;;;;;;4.70;1.83;;;14.90;99.90;;;;;;5051062;28;20425;-71
2021/11/10 09:38:30;;;;;;;1.10;1.00;;;15.10;99.90;;;;;;5052934;28;20426;-71
2021/11/10 09:40:59;;;;;;;3.43;1.53;;;15.20;99.90;;;;;;5066116;28;20174;-70
2021/11/10 09:43:33;;;;;;;1.47;1.37;;;14.70;99.90;;;;;;5051740;28;20181;-71
2021/11/10 09:45:59;;;;;;;3.50;2.77;;;14.20;99.90;;;;;;5036147;28;20952;-70
2021/11/10 09:48:26;;;;;;;2.47;1.40;;;13.90;99.90;;;;;;5051634;28;20517;-71
2021/11/10 09:50:52;;;;;;;1.53;1.43;;;13.10;99.90;;;;;;5050709;28;20452;-71
2021/11/10 09:53:18;;;;;;;3.60;2.00;;;13.00;99.90;;;;;;5052178;28;20461;-71
2021/11/10 09:55:45;;;;;;;3.87;1.47;;;12.90;99.90;;;;;;5048167;28;20505;-71
2021/11/10 09:58:11;;;;;;;1.03;0.90;;;12.80;99.90;;;;;;5048602;28;20476;-71
2021/11/10 10:00:59;;;;;;;0.90;0.60;;;11.80;99.90;;;;;;5050758;28;20497;-69
2021/11/10 10:03:25;;;;;;;2.40;1.47;;;12.30;99.90;;;;;;5051339;28;20522;-71
2021/11/10 10:05:53;;;;;;;2.20;2.03;;;12.40;99.90;;;;;;5051055;28;20437;-70
2021/11/10 10:08:21;;;;;;;0.93;0.87;;;12.20;99.90;;;;;;5051464;28;21022;-70
2021/11/10 10:10:47;;;;;;;1.53;1.43;;;12.70;99.90;;;;;;5051709;28;20425;-70
2021/11/10 10:13:14;;;;;;;2.40;1.27;;;13.30;99.90;;;;;;5051271;28;20460;-72
2021/11/10 10:15:42;;;;;;;1.33;1.23;;;13.30;99.90;;;;;;5051048;28;20500;-70
2021/11/10 10:18:25;;;;;;;3.87;3.47;;;13.20;99.90;;;;;;5051054;28;20972;-70
2021/11/10 10:20:57;;;;;;;1.10;1.00;;;12.80;99.90;;;;;;5056065;28;20908;-71
2021/11/10 10:23:26;;;;;;;3.53;1.33;;;12.30;99.90;;;;;;5070011;28;20571;-70
2021/11/10 10:26:04;;;;;;;1.63;1.23;;;11.60;99.90;;;;;;5049615;28;20409;-70
2021/11/10 10:28:34;;;;;;;1.00;0.90;;;11.00;99.90;;;;;;5051260;28;20810;-70
2021/11/10 10:31:05;;;;;;;3.23;1.20;;;11.30;99.90;;;;;;5049759;28;20421;-70
2021/11/10 10:33:38;;;;;;;1.00;0.80;;;12.10;99.90;;;;;;5049957;28;20464;-70
2021/11/10 10:36:13;;;;;;;1.27;1.07;;;12.00;99.90;;;;;;5051224;28;20413;-70
2021/11/10 10:38:42;;;;;;;0.73;0.70;;;12.10;99.90;;;;;;5052146;28;20433;-71
2021/11/10 10:41:09;;;;;;;2.30;2.10;;;12.60;99.90;;;;;;5052117;28;21068;-71
2021/11/10 10:43:46;;;;;;;1.30;1.20;;;12.70;99.90;;;;;;5052249;28;20410;-71
2021/11/10 10:46:12;;;;;;;1.63;1.53;;;12.90;99.90;;;;;;5051337;28;20441;-70
2021/11/10 10:48:38;;;;;;;2.90;1.40;;;12.50;99.90;;;;;;5051591;28;20930;-71
2021/11/10 10:51:16;;;;;;;1.57;1.27;;;13.00;99.90;;;;;;5051256;28;20782;-71
2021/11/10 10:53:51;;;;;;;4.53;2.83;;;12.50;99.90;;;;;;5053601;28;20487;-71
2021/11/10 10:56:36;;;;;;;4.77;1.07;;;12.60;99.90;;;;;;5052276;28;20950;-71
2021/11/10 10:59:13;;;;;;;3.60;1.50;;;13.30;99.90;;;;;;5055973;28;20421;-71
2021/11/10 11:01:53;;;;;;;2.50;1.67;;;13.50;99.90;;;;;;5057068;28;20435;-71
2021/11/10 11:04:22;;;;;;;3.40;3.10;;;13.60;99.90;;;;;;5036533;28;20914;-71
2021/11/10 11:07:08;;;;;;;4.20;2.80;;;13.30;99.90;;;;;;5036116;28;20486;-71
2021/11/10 11:09:40;;;;;;;1.43;1.10;;;13.00;99.90;;;;;;5054638;28;20429;-71
2021/11/10 11:17:18;;;;;;;12.03;2.43;;;13.60;99.90;;;;;;5054869;28;20424;-71
2021/11/10 11:20:03;;;;;;;3.57;3.27;;;13.70;99.90;;;;;;5054226;28;20409;-71
2021/11/10 11:22:33;;;;;;;2.00;1.63;;;13.20;99.90;;;;;;5053167;28;20189;-70
2021/11/10 11:25:11;;;;;;;1.47;1.07;;;13.80;99.90;;;;;;5053978;28;20421;-71
2021/11/10 11:27:37;;;;;;;1.47;1.10;;;14.20;99.90;;;;;;5053459;28;20448;-72
2021/11/10 11:30:08;;;;;;;2.63;2.43;;;14.50;99.90;;;;;;5053383;28;20417;-71
2021/11/10 11:32:40;;;;;;;6.33;4.00;;;14.80;99.90;;;;;;5054015;28;20539;-71
2021/11/10 11:35:08;;;;;;;2.23;0.97;;;15.90;99.90;;;;;;5052375;28;20402;-71
2021/11/10 11:37:34;;;;;;;6.20;2.20;;;16.60;99.90;;;;;;5054044;28;20475;-71
2021/11/10 11:40:16;;;;;;;7.70;2.03;;;17.40;99.90;;;;;;5052729;28;20409;-71
2021/11/10 11:42:43;;;;;;;3.17;2.23;;;18.00;99.90;;;;;;5054372;28;20220;-69
2021/11/10 11:45:10;;;;;;;2.33;2.13;;;18.20;99.90;;;;;;5053862;28;20442;-69
2021/11/10 11:47:35;;;;;;;1.40;1.17;;;18.80;99.90;;;;;;5053687;28;20429;-71
2021/11/10 11:50:04;;;;;;;1.53;1.43;;;19.40;97.40;;;;;;5051853;28;20432;-69
2021/11/10 11:52:33;;;;;;;2.27;1.97;;;19.20;94.60;;;;;;5053742;28;20198;-69
2021/11/10 11:55:05;;;;;;;2.60;2.40;;;19.60;94.80;;;;;;5051439;28;20407;-69
2021/11/10 11:57:32;;;;;;;2.50;1.87;;;19.50;92.50;;;;;;5053702;28;20504;-69
2021/11/10 12:00:00;;;;;;;2.10;2.00;;;19.10;91.20;;;;;;5053669;28;20413;-69
2021/11/10 12:02:35;;;;;;;4.97;2.73;;;18.50;92.20;;;;;;5053741;28;20406;-69
2021/11/10 12:05:11;;;;;;;1.73;1.40;;;17.90;91.40;;;;;;5053531;28;20397;-69
2021/11/10 12:07:54;;;;;;;4.43;1.90;;;18.20;93.90;;;;;;5053697;28;20436;-69
2021/11/10 12:10:23;;;;;;;5.43;2.43;;;18.30;93.20;;;;;;5051616;28;20440;-69
2021/11/10 12:13:13;;;;;;;4.07;1.53;;;18.50;91.10;;;;;;5042663;28;20838;-69
2021/11/10 12:15:57;;;;;;;3.17;1.50;;;18.50;84.70;;;;;;5052639;28;20409;-69
2021/11/10 12:18:23;;;;;;;3.83;2.27;;;18.00;85.70;;;;;;5080938;28;20424;-69
2021/11/10 12:20:57;;;;;;;2.50;2.13;;;17.70;91.20;;;;;;5053372;28;20413;-69
2021/11/10 12:23:23;;;;;;;1.40;1.30;;;17.30;91.80;;;;;;5053402;28;20166;-69
2021/11/10 12:26:03;;;;;;;5.67;2.50;;;16.60;92.00;;;;;;5053090;28;20418;-69
2021/11/10 12:28:54;;;;;;;1.43;0.93;;;16.00;93.40;;;;;;5051159;28;20664;-69
2021/11/10 12:31:27;;;;;;;1.67;1.57;;;15.90;98.30;;;;;;5051892;28;20847;-69
2021/11/10 12:33:53;;;;;;;1.63;1.53;;;15.70;99.90;;;;;;5068441;28;20981;-70
2021/11/10 12:36:19;;;;;;;2.00;1.70;;;16.00;97.80;;;;;;5052542;28;20409;-69
2021/11/10 12:38:51;;;;;;;2.33;1.30;;;16.70;98.10;;;;;;5054147;28;20429;-69
2021/11/10 12:41:17;;;;;;;2.70;2.47;;;16.70;94.20;;;;;;5054474;28;20553;-70
2021/11/10 12:43:44;;;;;;;1.73;1.63;;;16.50;92.80;;;;;;5052316;28;20436;-69
2021/11/10 12:46:18;;;;;;;7.73;3.07;;;16.50;91.70;;;;;;5053587;28;20504;-70
2021/11/10 12:48:45;;;;;;;0.87;0.80;;;15.80;94.30;;;;;;5054078;28;20412;-69
2021/11/10 12:51:17;;;;;;;1.53;1.43;;;15.50;95.60;;;;;;5053533;28;20424;-69
2021/11/10 12:53:54;;;;;;;1.00;0.87;;;14.90;94.60;;;;;;5051778;28;20445;-69
2021/11/10 12:56:49;;;;;;;2.03;1.13;;;14.00;95.10;;;;;;5051695;28;20429;-72
2021/11/10 12:59:35;;;;;;;1.23;1.13;;;13.70;99.90;;;;;;5045787;28;20512;-70
2021/11/10 13:02:14;;;;;;;0.80;0.80;;;13.80;99.90;;;;;;5054168;28;20488;-70